sensor_id;sensor_type;location;lat;lon;timestamp;pressure;altitude;pressure_sealevel;temperature;humidity
13235;BME280;6683;48.506;9.050;2024-02-14T00:01:47;98611.09;;;4.64;71.51
13235;BME280;6683;48.506;9.050;2024-02-14T00:04:50;98612.06;;;4.63;71.14
13235;BME280;6683;48.506;9.050;2024-02-14T00:07:53;98617.16;;;4.64;71.65
13235;BME280;6683;48.506;9.050;2024-02-14T00:10:55;98621.94;;;4.59;71.41
13235;BME280;6683;48.506;9.050;2024-02-14T00:14:07;98625.13;;;4.53;71.56
13235;BME280;6683;48.506;9.050;2024-02-14T00:17:09;98627.34;;;4.48;70.75
13235;BME280;6683;48.506;9.050;2024-02-14T00:20:12;98622.53;;;4.44;70.93
13235;BME280;6683;48.506;9.050;2024-02-14T00:23:17;98623.88;;;4.38;70.82
13235;BME280;6683;48.506;9.050;2024-02-14T00:26:19;98625.13;;;4.34;71.28
13235;BME280;6683;48.506;9.050;2024-02-14T00:29:21;98619.34;;;4.31;71.66
13235;BME280;6683;48.506;9.050;2024-02-14T00:32:23;98622.50;;;4.25;71.73
13235;BME280;6683;48.506;9.050;2024-02-14T00:35:26;98623.59;;;4.22;71.13
13235;BME280;6683;48.506;9.050;2024-02-14T00:38:29;98623.06;;;4.19;71.21
13235;BME280;6683;48.506;9.050;2024-02-14T00:41:31;98626.34;;;4.21;71.39
13235;BME280;6683;48.506;9.050;2024-02-14T00:44:42;98622.75;;;4.22;72.14
13235;BME280;6683;48.506;9.050;2024-02-14T00:47:44;98625.94;;;4.25;71.67
13235;BME280;6683;48.506;9.050;2024-02-14T00:50:46;98615.22;;;4.28;72.05
13235;BME280;6683;48.506;9.050;2024-02-14T00:53:50;98620.88;;;4.33;72.16
13235;BME280;6683;48.506;9.050;2024-02-14T00:56:57;98616.19;;;4.37;72.30
13235;BME280;6683;48.506;9.050;2024-02-14T01:00:07;98618.38;;;4.41;71.75
13235;BME280;6683;48.506;9.050;2024-02-14T01:03:09;98619.63;;;4.47;72.26
13235;BME280;6683;48.506;9.050;2024-02-14T01:06:15;98620.19;;;4.50;71.84
13235;BME280;6683;48.506;9.050;2024-02-14T01:09:18;98624.97;;;4.55;71.97
13235;BME280;6683;48.506;9.050;2024-02-14T01:12:20;98624.56;;;4.59;72.39
13235;BME280;6683;48.506;9.050;2024-02-14T01:15:23;98625.94;;;4.63;72.42
13235;BME280;6683;48.506;9.050;2024-02-14T01:18:25;98619.47;;;4.67;72.55
13235;BME280;6683;48.506;9.050;2024-02-14T01:21:27;98621.66;;;4.72;72.51
13235;BME280;6683;48.506;9.050;2024-02-14T01:24:30;98629.78;;;4.78;72.66
13235;BME280;6683;48.506;9.050;2024-02-14T01:27:32;98617.94;;;4.84;72.60
13235;BME280;6683;48.506;9.050;2024-02-14T01:30:35;98609.66;;;4.88;72.39
13235;BME280;6683;48.506;9.050;2024-02-14T01:33:38;98618.75;;;4.94;72.57
13235;BME280;6683;48.506;9.050;2024-02-14T01:36:41;98611.59;;;4.96;72.43
13235;BME280;6683;48.506;9.050;2024-02-14T01:39:44;98605.81;;;5.02;72.26
13235;BME280;6683;48.506;9.050;2024-02-14T01:42:46;98615.16;;;5.05;72.75
13235;BME280;6683;48.506;9.050;2024-02-14T01:45:48;98604.53;;;5.06;72.42
13235;BME280;6683;48.506;9.050;2024-02-14T01:48:51;98607.84;;;5.08;72.22
13235;BME280;6683;48.506;9.050;2024-02-14T01:51:55;98602.59;;;5.08;72.63
13235;BME280;6683;48.506;9.050;2024-02-14T01:55:03;98592.84;;;5.10;73.05
13235;BME280;6683;48.506;9.050;2024-02-14T01:58:07;98607.44;;;5.13;72.63
13235;BME280;6683;48.506;9.050;2024-02-14T02:01:09;98616.78;;;5.15;72.68
13235;BME280;6683;48.506;9.050;2024-02-14T02:04:11;98610.41;;;5.18;72.58
13235;BME280;6683;48.506;9.050;2024-02-14T02:07:14;98600.63;;;5.20;72.82
13235;BME280;6683;48.506;9.050;2024-02-14T02:10:18;98594.28;;;5.22;72.32
13235;BME280;6683;48.506;9.050;2024-02-14T02:13:21;98598.44;;;5.25;72.88
13235;BME280;6683;48.506;9.050;2024-02-14T02:16:24;98598.00;;;5.29;72.94
13235;BME280;6683;48.506;9.050;2024-02-14T02:19:26;98591.66;;;5.32;72.75
13235;BME280;6683;48.506;9.050;2024-02-14T02:22:28;98595.50;;;5.37;73.12
13235;BME280;6683;48.506;9.050;2024-02-14T02:25:34;98588.16;;;5.41;72.65
13235;BME280;6683;48.506;9.050;2024-02-14T02:28:36;98596.56;;;5.44;72.92
13235;BME280;6683;48.506;9.050;2024-02-14T02:31:40;98591.88;;;5.48;73.14
13235;BME280;6683;48.506;9.050;2024-02-14T02:34:42;98584.53;;;5.51;72.94
13235;BME280;6683;48.506;9.050;2024-02-14T02:37:46;98577.50;;;5.52;72.48
13235;BME280;6683;48.506;9.050;2024-02-14T02:40:50;98573.09;;;5.52;72.96
13235;BME280;6683;48.506;9.050;2024-02-14T02:43:52;98563.31;;;5.54;72.60
13235;BME280;6683;48.506;9.050;2024-02-14T02:46:55;98565.25;;;5.52;72.38
13235;BME280;6683;48.506;9.050;2024-02-14T02:49:57;98554.91;;;5.51;72.81
13235;BME280;6683;48.506;9.050;2024-02-14T02:53:00;98547.03;;;5.51;72.78
13235;BME280;6683;48.506;9.050;2024-02-14T02:56:05;98544.31;;;5.52;73.08
13235;BME280;6683;48.506;9.050;2024-02-14T02:59:08;98541.53;;;5.54;72.41
13235;BME280;6683;48.506;9.050;2024-02-14T03:02:10;98542.50;;;5.53;72.30
13235;BME280;6683;48.506;9.050;2024-02-14T03:05:12;98551.31;;;5.52;72.28
13235;BME280;6683;48.506;9.050;2024-02-14T03:08:18;98539.34;;;5.49;72.51
13235;BME280;6683;48.506;9.050;2024-02-14T03:11:23;98539.34;;;5.49;73.09
13235;BME280;6683;48.506;9.050;2024-02-14T03:14:29;98533.44;;;5.47;72.90
13235;BME280;6683;48.506;9.050;2024-02-14T03:17:33;98542.81;;;5.50;72.77
13235;BME280;6683;48.506;9.050;2024-02-14T03:20:35;98520.06;;;5.50;72.58
13235;BME280;6683;48.506;9.050;2024-02-14T03:23:37;98540.03;;;5.51;72.44
13235;BME280;6683;48.506;9.050;2024-02-14T03:26:42;98539.50;;;5.48;73.15
13235;BME280;6683;48.506;9.050;2024-02-14T03:29:44;98549.81;;;5.49;73.10
13235;BME280;6683;48.506;9.050;2024-02-14T03:32:48;98562.09;;;5.49;72.74
13235;BME280;6683;48.506;9.050;2024-02-14T03:35:50;98565.53;;;5.49;73.08
13235;BME280;6683;48.506;9.050;2024-02-14T03:38:52;98562.22;;;5.47;72.76
13235;BME280;6683;48.506;9.050;2024-02-14T03:41:55;98573.13;;;5.43;72.64
13235;BME280;6683;48.506;9.050;2024-02-14T03:44:57;98581.28;;;5.40;72.49
13235;BME280;6683;48.506;9.050;2024-02-14T03:48:04;98580.63;;;5.38;72.56
13235;BME280;6683;48.506;9.050;2024-02-14T03:51:06;98586.97;;;5.35;72.42
13235;BME280;6683;48.506;9.050;2024-02-14T03:54:08;98583.81;;;5.32;72.54
13235;BME280;6683;48.506;9.050;2024-02-14T03:57:13;98590.16;;;5.29;72.66
13235;BME280;6683;48.506;9.050;2024-02-14T04:00:16;98593.88;;;5.27;72.83
13235;BME280;6683;48.506;9.050;2024-02-14T04:03:18;98591.41;;;5.25;72.65
13235;BME280;6683;48.506;9.050;2024-02-14T04:06:20;98586.19;;;5.25;72.79
13235;BME280;6683;48.506;9.050;2024-02-14T04:09:22;98589.47;;;5.27;73.04
13235;BME280;6683;48.506;9.050;2024-02-14T04:12:26;98583.41;;;5.27;73.03
13235;BME280;6683;48.506;9.050;2024-02-14T04:15:28;98585.03;;;5.28;72.68
13235;BME280;6683;48.506;9.050;2024-02-14T04:18:30;98591.25;;;5.27;72.97
13235;BME280;6683;48.506;9.050;2024-02-14T04:21:32;98586.28;;;5.24;72.60
13235;BME280;6683;48.506;9.050;2024-02-14T04:24:34;98579.44;;;5.23;73.03
13235;BME280;6683;48.506;9.050;2024-02-14T04:27:38;98574.34;;;5.21;72.90
13235;BME280;6683;48.506;9.050;2024-02-14T04:30:40;98580.53;;;5.20;72.91
13235;BME280;6683;48.506;9.050;2024-02-14T04:33:42;98581.53;;;5.19;72.87
13235;BME280;6683;48.506;9.050;2024-02-14T04:36:47;98581.53;;;5.19;72.89
13235;BME280;6683;48.506;9.050;2024-02-14T04:39:49;98592.09;;;5.18;72.95
13235;BME280;6683;48.506;9.050;2024-02-14T04:42:52;98605.59;;;5.13;72.91
13235;BME280;6683;48.506;9.050;2024-02-14T04:45:55;98613.91;;;5.09;72.39
13235;BME280;6683;48.506;9.050;2024-02-14T04:48:57;98598.63;;;5.04;72.54
13235;BME280;6683;48.506;9.050;2024-02-14T04:51:59;98609.25;;;5.03;72.99
13235;BME280;6683;48.506;9.050;2024-02-14T04:55:01;98613.91;;;4.99;72.16
13235;BME280;6683;48.506;9.050;2024-02-14T04:58:06;98629.91;;;4.96;72.84
13235;BME280;6683;48.506;9.050;2024-02-14T05:01:08;98626.88;;;4.91;72.97
13235;BME280;6683;48.506;9.050;2024-02-14T05:04:10;98623.72;;;4.88;72.14
13235;BME280;6683;48.506;9.050;2024-02-14T05:07:13;98625.78;;;4.84;72.74
13235;BME280;6683;48.506;9.050;2024-02-14T05:10:16;98627.69;;;4.82;72.30
13235;BME280;6683;48.506;9.050;2024-02-14T05:13:20;98633.09;;;4.80;72.55
13235;BME280;6683;48.506;9.050;2024-02-14T05:16:22;98631.44;;;4.79;73.11
13235;BME280;6683;48.506;9.050;2024-02-14T05:19:24;98622.91;;;4.77;73.13
13235;BME280;6683;48.506;9.050;2024-02-14T05:22:26;98617.53;;;4.79;73.29
13235;BME280;6683;48.506;9.050;2024-02-14T05:25:29;98617.25;;;4.82;73.32
13235;BME280;6683;48.506;9.050;2024-02-14T05:28:35;98610.09;;;4.84;73.50
13235;BME280;6683;48.506;9.050;2024-02-14T05:31:45;98609.81;;;4.87;73.44
13235;BME280;6683;48.506;9.050;2024-02-14T05:34:47;98615.59;;;4.91;72.96
13235;BME280;6683;48.506;9.050;2024-02-14T05:37:49;98610.91;;;4.94;73.55
13235;BME280;6683;48.506;9.050;2024-02-14T05:40:52;98612.28;;;4.98;73.48
13235;BME280;6683;48.506;9.050;2024-02-14T05:43:56;98610.19;;;5.02;73.53
13235;BME280;6683;48.506;9.050;2024-02-14T05:46:58;98613.34;;;5.05;73.75
13235;BME280;6683;48.506;9.050;2024-02-14T05:50:01;98602.47;;;5.10;73.54
13235;BME280;6683;48.506;9.050;2024-02-14T05:53:04;98605.59;;;5.13;73.75
13235;BME280;6683;48.506;9.050;2024-02-14T05:56:06;98596.53;;;5.17;73.25
13235;BME280;6683;48.506;9.050;2024-02-14T05:59:10;98593.63;;;5.20;73.45
13235;BME280;6683;48.506;9.050;2024-02-14T06:02:12;98601.19;;;5.23;73.68
13235;BME280;6683;48.506;9.050;2024-02-14T06:05:14;98595.66;;;5.26;73.73
13235;BME280;6683;48.506;9.050;2024-02-14T06:08:16;98591.78;;;5.30;73.44
13235;BME280;6683;48.506;9.050;2024-02-14T06:11:18;98591.50;;;5.33;73.52
13235;BME280;6683;48.506;9.050;2024-02-14T06:14:24;98596.44;;;5.36;73.30
13235;BME280;6683;48.506;9.050;2024-02-14T06:17:26;98599.47;;;5.41;73.52
13235;BME280;6683;48.506;9.050;2024-02-14T06:20:28;98600.00;;;5.45;73.49
13235;BME280;6683;48.506;9.050;2024-02-14T06:23:30;98588.56;;;5.46;73.70
13235;BME280;6683;48.506;9.050;2024-02-14T06:26:32;98602.84;;;5.51;73.67
13235;BME280;6683;48.506;9.050;2024-02-14T06:29:36;98612.06;;;5.55;73.61
13235;BME280;6683;48.506;9.050;2024-02-14T06:32:38;98607.38;;;5.59;73.62
13235;BME280;6683;48.506;9.050;2024-02-14T06:35:40;98602.84;;;5.61;73.21
13235;BME280;6683;48.506;9.050;2024-02-14T06:38:42;98611.88;;;5.66;73.25
13235;BME280;6683;48.506;9.050;2024-02-14T06:41:47;98614.50;;;5.66;73.45
13235;BME280;6683;48.506;9.050;2024-02-14T06:44:50;98624.84;;;5.68;72.97
13235;BME280;6683;48.506;9.050;2024-02-14T06:47:52;98617.13;;;5.66;73.33
13235;BME280;6683;48.506;9.050;2024-02-14T06:50:54;98617.97;;;5.67;73.34
13235;BME280;6683;48.506;9.050;2024-02-14T06:53:57;98630.91;;;5.68;73.53
13235;BME280;6683;48.506;9.050;2024-02-14T06:56:59;98621.25;;;5.69;73.18
13235;BME280;6683;48.506;9.050;2024-02-14T07:00:04;98621.38;;;5.67;73.18
13235;BME280;6683;48.506;9.050;2024-02-14T07:03:07;98630.22;;;5.66;73.42
13235;BME280;6683;48.506;9.050;2024-02-14T07:06:09;98625.94;;;5.65;73.27
13235;BME280;6683;48.506;9.050;2024-02-14T07:09:12;98624.97;;;5.66;73.52
13235;BME280;6683;48.506;9.050;2024-02-14T07:12:14;98632.69;;;5.68;73.17
13235;BME280;6683;48.506;9.050;2024-02-14T07:15:18;98630.91;;;5.68;73.04
13235;BME280;6683;48.506;9.050;2024-02-14T07:18:20;98629.91;;;5.69;73.86
13235;BME280;6683;48.506;9.050;2024-02-14T07:21:22;98636.66;;;5.72;73.41
13235;BME280;6683;48.506;9.050;2024-02-14T07:24:24;98640.63;;;5.76;73.34
13235;BME280;6683;48.506;9.050;2024-02-14T07:27:26;98644.94;;;5.77;73.65
13235;BME280;6683;48.506;9.050;2024-02-14T07:30:30;98649.56;;;5.83;73.86
13235;BME280;6683;48.506;9.050;2024-02-14T07:33:32;98645.72;;;5.87;74.13
13235;BME280;6683;48.506;9.050;2024-02-14T07:36:34;98654.09;;;5.91;73.79
13235;BME280;6683;48.506;9.050;2024-02-14T07:39:36;98647.59;;;5.95;74.00
13235;BME280;6683;48.506;9.050;2024-02-14T07:42:38;98653.41;;;5.98;73.58
13235;BME280;6683;48.506;9.050;2024-02-14T07:45:42;98649.34;;;6.04;74.11
13235;BME280;6683;48.506;9.050;2024-02-14T07:48:44;98649.44;;;6.12;74.25
13235;BME280;6683;48.506;9.050;2024-02-14T07:51:46;98652.97;;;6.20;74.13
13235;BME280;6683;48.506;9.050;2024-02-14T07:54:52;98651.56;;;6.26;74.17
13235;BME280;6683;48.506;9.050;2024-02-14T07:57:54;98656.06;;;6.33;74.25
13235;BME280;6683;48.506;9.050;2024-02-14T08:00:58;98657.09;;;6.40;74.27
13235;BME280;6683;48.506;9.050;2024-02-14T08:04:00;98663.41;;;6.47;74.41
13235;BME280;6683;48.506;9.050;2024-02-14T08:07:02;98663.34;;;6.57;74.55
13235;BME280;6683;48.506;9.050;2024-02-14T08:10:05;98665.91;;;6.67;74.96
13235;BME280;6683;48.506;9.050;2024-02-14T08:13:07;98670.09;;;6.77;75.08
13235;BME280;6683;48.506;9.050;2024-02-14T08:16:11;98667.25;;;6.88;74.66
13235;BME280;6683;48.506;9.050;2024-02-14T08:19:13;98662.56;;;7.00;74.77
13235;BME280;6683;48.506;9.050;2024-02-14T08:22:16;98674.47;;;7.12;75.16
13235;BME280;6683;48.506;9.050;2024-02-14T08:25:18;98668.97;;;7.23;74.78
13235;BME280;6683;48.506;9.050;2024-02-14T08:28:20;98667.91;;;7.34;74.97
13235;BME280;6683;48.506;9.050;2024-02-14T08:31:24;98677.47;;;7.43;74.73
13235;BME280;6683;48.506;9.050;2024-02-14T08:34:26;98672.63;;;7.56;75.12
13235;BME280;6683;48.506;9.050;2024-02-14T08:37:28;98672.03;;;7.70;75.10
13235;BME280;6683;48.506;9.050;2024-02-14T08:40:30;98685.56;;;7.83;75.17
13235;BME280;6683;48.506;9.050;2024-02-14T08:43:32;98685.81;;;7.97;75.43
13235;BME280;6683;48.506;9.050;2024-02-14T08:46:37;98685.19;;;8.12;75.37
13235;BME280;6683;48.506;9.050;2024-02-14T08:49:40;98676.75;;;8.26;75.48
13235;BME280;6683;48.506;9.050;2024-02-14T08:52:43;98680.38;;;8.41;75.34
13235;BME280;6683;48.506;9.050;2024-02-14T08:55:45;98672.03;;;8.53;75.36
13235;BME280;6683;48.506;9.050;2024-02-14T08:58:47;98676.00;;;8.65;75.12
13235;BME280;6683;48.506;9.050;2024-02-14T09:01:51;98680.81;;;8.78;75.21
13235;BME280;6683;48.506;9.050;2024-02-14T09:04:53;98678.66;;;8.90;75.12
13235;BME280;6683;48.506;9.050;2024-02-14T09:07:55;98690.69;;;9.00;75.29
13235;BME280;6683;48.506;9.050;2024-02-14T09:10:57;98686.41;;;9.07;74.85
13235;BME280;6683;48.506;9.050;2024-02-14T09:14:00;98688.19;;;9.15;75.17
13235;BME280;6683;48.506;9.050;2024-02-14T09:17:08;98683.94;;;9.22;75.17
13235;BME280;6683;48.506;9.050;2024-02-14T09:20:11;98691.66;;;9.31;75.30
13235;BME280;6683;48.506;9.050;2024-02-14T09:23:14;98690.66;;;9.40;75.18
13235;BME280;6683;48.506;9.050;2024-02-14T09:26:20;98697.41;;;9.51;75.21
13235;BME280;6683;48.506;9.050;2024-02-14T09:29:22;98685.03;;;9.59;75.23
13235;BME280;6683;48.506;9.050;2024-02-14T09:32:25;98691.25;;;9.66;75.46
13235;BME280;6683;48.506;9.050;2024-02-14T09:35:28;98675.59;;;9.73;75.63
13235;BME280;6683;48.506;9.050;2024-02-14T09:38:30;98684.13;;;9.83;75.92
13235;BME280;6683;48.506;9.050;2024-02-14T09:41:37;98687.88;;;9.97;75.84
13235;BME280;6683;48.506;9.050;2024-02-14T09:44:41;98688.81;;;10.12;76.02
13235;BME280;6683;48.506;9.050;2024-02-14T09:47:45;98681.84;;;10.27;76.00
13235;BME280;6683;48.506;9.050;2024-02-14T09:50:48;98680.56;;;10.45;76.02
13235;BME280;6683;48.506;9.050;2024-02-14T09:53:51;98686.59;;;10.62;75.93
13235;BME280;6683;48.506;9.050;2024-02-14T09:56:55;98683.50;;;10.81;76.05
13235;BME280;6683;48.506;9.050;2024-02-14T09:59:59;98679.22;;;11.03;75.88
13235;BME280;6683;48.506;9.050;2024-02-14T10:03:05;98674.16;;;11.31;76.09
13235;BME280;6683;48.506;9.050;2024-02-14T10:06:07;98675.88;;;11.61;76.02
13235;BME280;6683;48.506;9.050;2024-02-14T10:09:09;98673.06;;;11.91;76.37
13235;BME280;6683;48.506;9.050;2024-02-14T10:12:12;98671.03;;;12.23;76.49
13235;BME280;6683;48.506;9.050;2024-02-14T10:15:14;98661.19;;;12.52;76.43
13235;BME280;6683;48.506;9.050;2024-02-14T10:18:19;98660.03;;;12.76;76.54
13235;BME280;6683;48.506;9.050;2024-02-14T10:21:21;98654.22;;;13.08;77.12
13235;BME280;6683;48.506;9.050;2024-02-14T10:24:26;98652.25;;;13.38;77.00
13235;BME280;6683;48.506;9.050;2024-02-14T10:27:29;98642.03;;;13.69;77.40
13235;BME280;6683;48.506;9.050;2024-02-14T10:30:32;98639.00;;;14.13;77.47
13235;BME280;6683;48.506;9.050;2024-02-14T10:33:36;98639.38;;;14.57;77.37
13235;BME280;6683;48.506;9.050;2024-02-14T10:36:39;98637.41;;;14.98;77.13
13235;BME280;6683;48.506;9.050;2024-02-14T10:39:44;98637.44;;;15.44;77.11
13235;BME280;6683;48.506;9.050;2024-02-14T10:42:47;98624.88;;;15.84;76.56
13235;BME280;6683;48.506;9.050;2024-02-14T10:45:50;98633.56;;;16.17;76.20
13235;BME280;6683;48.506;9.050;2024-02-14T10:49:00;98634.06;;;16.45;75.41
13235;BME280;6683;48.506;9.050;2024-02-14T10:52:06;98619.94;;;16.76;75.26
13235;BME280;6683;48.506;9.050;2024-02-14T10:55:11;98617.00;;;17.15;75.22
13235;BME280;6683;48.506;9.050;2024-02-14T10:58:14;98622.22;;;17.53;74.57
13235;BME280;6683;48.506;9.050;2024-02-14T11:01:18;98606.75;;;17.80;73.99
13235;BME280;6683;48.506;9.050;2024-02-14T11:04:23;98614.97;;;17.96;73.20
13235;BME280;6683;48.506;9.050;2024-02-14T11:07:28;98616.75;;;18.02;72.43
13235;BME280;6683;48.506;9.050;2024-02-14T11:10:30;98626.41;;;18.03;72.22
13235;BME280;6683;48.506;9.050;2024-02-14T11:13:41;98625.22;;;17.99;71.81
13235;BME280;6683;48.506;9.050;2024-02-14T11:16:45;98620.31;;;17.96;71.50
13235;BME280;6683;48.506;9.050;2024-02-14T11:19:49;98625.22;;;17.99;71.34
13235;BME280;6683;48.506;9.050;2024-02-14T11:22:57;98615.97;;;18.02;71.25
13235;BME280;6683;48.506;9.050;2024-02-14T11:26:01;98616.75;;;18.02;70.84
13235;BME280;6683;48.506;9.050;2024-02-14T11:29:04;98620.09;;;18.16;71.09
13235;BME280;6683;48.506;9.050;2024-02-14T11:32:06;98621.44;;;18.25;70.44
13235;BME280;6683;48.506;9.050;2024-02-14T11:35:12;98632.31;;;18.23;70.00
13235;BME280;6683;48.506;9.050;2024-02-14T11:38:14;98621.72;;;18.17;69.91
13235;BME280;6683;48.506;9.050;2024-02-14T11:41:16;98627.16;;;18.10;69.51
13235;BME280;6683;48.506;9.050;2024-02-14T11:44:19;98625.75;;;18.08;69.80
13235;BME280;6683;48.506;9.050;2024-02-14T11:47:23;98623.00;;;18.14;69.70
13235;BME280;6683;48.506;9.050;2024-02-14T11:50:26;98625.72;;;18.26;69.70
13235;BME280;6683;48.506;9.050;2024-02-14T11:53:29;98622.59;;;18.47;69.54
13235;BME280;6683;48.506;9.050;2024-02-14T11:56:31;98619.94;;;18.77;69.02
13235;BME280;6683;48.506;9.050;2024-02-14T11:59:35;98621.50;;;19.07;68.58
13235;BME280;6683;48.506;9.050;2024-02-14T12:02:37;98617.59;;;19.33;67.96
13235;BME280;6683;48.506;9.050;2024-02-14T12:05:41;98622.16;;;19.56;67.59
13235;BME280;6683;48.506;9.050;2024-02-14T12:08:44;98624.00;;;19.78;67.20
13235;BME280;6683;48.506;9.050;2024-02-14T12:11:46;98620.59;;;19.94;67.13
13235;BME280;6683;48.506;9.050;2024-02-14T12:14:52;98625.81;;;20.01;66.47
13235;BME280;6683;48.506;9.050;2024-02-14T12:17:55;98622.59;;;19.87;66.44
13235;BME280;6683;48.506;9.050;2024-02-14T12:21:06;98614.78;;;19.86;67.20
13235;BME280;6683;48.506;9.050;2024-02-14T12:24:10;98615.94;;;20.02;66.26
13235;BME280;6683;48.506;9.050;2024-02-14T12:27:13;98621.63;;;20.05;65.89
13235;BME280;6683;48.506;9.050;2024-02-14T12:30:18;98610.13;;;20.05;66.16
13235;BME280;6683;48.506;9.050;2024-02-14T12:33:21;98604.50;;;20.06;65.86
13235;BME280;6683;48.506;9.050;2024-02-14T12:36:26;98600.31;;;20.10;66.26
13235;BME280;6683;48.506;9.050;2024-02-14T12:39:28;98608.19;;;20.28;66.03
13235;BME280;6683;48.506;9.050;2024-02-14T12:42:30;98600.25;;;20.33;65.53
13235;BME280;6683;48.506;9.050;2024-02-14T12:45:33;98594.53;;;20.30;65.04
13235;BME280;6683;48.506;9.050;2024-02-14T12:48:35;98585.13;;;20.27;64.96
13235;BME280;6683;48.506;9.050;2024-02-14T12:51:39;98589.91;;;20.25;65.17
13235;BME280;6683;48.506;9.050;2024-02-14T12:54:41;98592.53;;;20.37;65.16
13235;BME280;6683;48.506;9.050;2024-02-14T12:57:43;98585.78;;;20.34;64.75
13235;BME280;6683;48.506;9.050;2024-02-14T13:00:45;98597.50;;;20.17;64.77
13235;BME280;6683;48.506;9.050;2024-02-14T13:03:48;98585.75;;;19.94;64.98
13235;BME280;6683;48.506;9.050;2024-02-14T13:06:51;98588.25;;;19.73;65.31
13235;BME280;6683;48.506;9.050;2024-02-14T13:09:54;98591.78;;;19.50;65.29
13235;BME280;6683;48.506;9.050;2024-02-14T13:12:57;98599.28;;;19.30;65.82
13235;BME280;6683;48.506;9.050;2024-02-14T13:15:59;98594.88;;;19.12;65.88
13235;BME280;6683;48.506;9.050;2024-02-14T13:19:01;98597.41;;;18.96;66.21
13235;BME280;6683;48.506;9.050;2024-02-14T13:22:05;98595.84;;;18.77;66.34
13235;BME280;6683;48.506;9.050;2024-02-14T13:25:08;98596.72;;;18.59;66.34
13235;BME280;6683;48.506;9.050;2024-02-14T13:28:11;98592.16;;;18.48;66.62
13235;BME280;6683;48.506;9.050;2024-02-14T13:31:13;98583.47;;;18.34;66.25
13235;BME280;6683;48.506;9.050;2024-02-14T13:34:15;98584.22;;;18.23;66.70
13235;BME280;6683;48.506;9.050;2024-02-14T13:37:18;98595.00;;;18.17;67.15
13235;BME280;6683;48.506;9.050;2024-02-14T13:40:21;98589.53;;;18.12;67.04
13235;BME280;6683;48.506;9.050;2024-02-14T13:43:23;98580.75;;;18.05;67.17
13235;BME280;6683;48.506;9.050;2024-02-14T13:46:25;98581.66;;;17.99;67.38
13235;BME280;6683;48.506;9.050;2024-02-14T13:49:28;98578.88;;;17.94;67.26
13235;BME280;6683;48.506;9.050;2024-02-14T13:52:31;98577.06;;;17.88;67.28
13235;BME280;6683;48.506;9.050;2024-02-14T13:55:33;98580.84;;;17.80;67.37
13235;BME280;6683;48.506;9.050;2024-02-14T13:58:36;98590.44;;;17.70;67.28
13235;BME280;6683;48.506;9.050;2024-02-14T14:01:39;98582.47;;;17.63;67.63
13235;BME280;6683;48.506;9.050;2024-02-14T14:04:41;98587.22;;;17.61;67.77
13235;BME280;6683;48.506;9.050;2024-02-14T14:07:44;98582.34;;;17.58;67.81
13235;BME280;6683;48.506;9.050;2024-02-14T14:10:47;98582.56;;;17.56;67.84
13235;BME280;6683;48.506;9.050;2024-02-14T14:13:49;98577.22;;;17.56;67.90
13235;BME280;6683;48.506;9.050;2024-02-14T14:16:51;98576.19;;;17.58;68.00
13235;BME280;6683;48.506;9.050;2024-02-14T14:19:53;98581.53;;;17.58;68.13
13235;BME280;6683;48.506;9.050;2024-02-14T14:22:57;98570.84;;;17.58;67.97
13235;BME280;6683;48.506;9.050;2024-02-14T14:25:59;98578.84;;;17.58;67.90
13235;BME280;6683;48.506;9.050;2024-02-14T14:29:02;98574.78;;;17.55;68.09
13235;BME280;6683;48.506;9.050;2024-02-14T14:32:05;98584.44;;;17.56;67.97
13235;BME280;6683;48.506;9.050;2024-02-14T14:35:08;98579.88;;;17.56;68.30
13235;BME280;6683;48.506;9.050;2024-02-14T14:38:13;98584.19;;;17.58;68.07
13235;BME280;6683;48.506;9.050;2024-02-14T14:41:15;98584.78;;;17.60;68.02
13235;BME280;6683;48.506;9.050;2024-02-14T14:44:18;98583.13;;;17.58;68.24
13235;BME280;6683;48.506;9.050;2024-02-14T14:47:20;98577.81;;;17.58;68.19
13235;BME280;6683;48.506;9.050;2024-02-14T14:50:23;98579.44;;;17.60;68.17
13235;BME280;6683;48.506;9.050;2024-02-14T14:53:27;98575.13;;;17.58;68.27
13235;BME280;6683;48.506;9.050;2024-02-14T14:56:29;98579.44;;;17.60;68.14
13235;BME280;6683;48.506;9.050;2024-02-14T14:59:31;98575.97;;;17.59;67.99
13235;BME280;6683;48.506;9.050;2024-02-14T15:02:37;98579.22;;;17.61;68.12
13235;BME280;6683;48.506;9.050;2024-02-14T15:05:39;98570.84;;;17.58;68.21
13235;BME280;6683;48.506;9.050;2024-02-14T15:08:43;98569.00;;;17.58;68.27
13235;BME280;6683;48.506;9.050;2024-02-14T15:11:46;98566.09;;;17.60;68.10
13235;BME280;6683;48.506;9.050;2024-02-14T15:14:48;98559.75;;;17.61;68.42
13235;BME280;6683;48.506;9.050;2024-02-14T15:17:50;98558.69;;;17.62;68.32
13235;BME280;6683;48.506;9.050;2024-02-14T15:20:52;98559.50;;;17.62;68.28
13235;BME280;6683;48.506;9.050;2024-02-14T15:23:55;98561.59;;;17.60;68.22
13235;BME280;6683;48.506;9.050;2024-02-14T15:26:57;98560.75;;;17.60;68.24
13235;BME280;6683;48.506;9.050;2024-02-14T15:30:01;98554.00;;;17.57;68.20
13235;BME280;6683;48.506;9.050;2024-02-14T15:33:20;98556.53;;;17.52;68.17
13235;BME280;6683;48.506;9.050;2024-02-14T15:36:23;98555.31;;;17.48;68.34
13235;BME280;6683;48.506;9.050;2024-02-14T15:39:27;98564.00;;;17.43;68.43
13235;BME280;6683;48.506;9.050;2024-02-14T15:42:29;98572.44;;;17.40;68.40
13235;BME280;6683;48.506;9.050;2024-02-14T15:45:31;98575.75;;;17.36;68.17
13235;BME280;6683;48.506;9.050;2024-02-14T15:48:33;98577.22;;;17.32;68.13
13235;BME280;6683;48.506;9.050;2024-02-14T15:51:35;98571.75;;;17.27;68.02
13235;BME280;6683;48.506;9.050;2024-02-14T15:54:39;98574.25;;;17.22;68.17
13235;BME280;6683;48.506;9.050;2024-02-14T15:57:45;98561.78;;;17.16;68.24
13235;BME280;6683;48.506;9.050;2024-02-14T16:00:47;98573.13;;;17.11;68.49
13235;BME280;6683;48.506;9.050;2024-02-14T16:03:49;98569.25;;;17.07;68.18
13235;BME280;6683;48.506;9.050;2024-02-14T16:06:51;98577.91;;;17.03;68.35
13235;BME280;6683;48.506;9.050;2024-02-14T16:09:55;98581.66;;;16.95;68.43
13235;BME280;6683;48.506;9.050;2024-02-14T16:12:57;98583.13;;;16.91;68.46
13235;BME280;6683;48.506;9.050;2024-02-14T16:15:59;98583.56;;;16.88;68.46
13235;BME280;6683;48.506;9.050;2024-02-14T16:19:02;98580.75;;;16.83;68.68
13235;BME280;6683;48.506;9.050;2024-02-14T16:22:05;98591.00;;;16.79;68.59
13235;BME280;6683;48.506;9.050;2024-02-14T16:25:09;98588.19;;;16.74;68.67
13235;BME280;6683;48.506;9.050;2024-02-14T16:28:11;98585.13;;;16.71;68.59
13235;BME280;6683;48.506;9.050;2024-02-14T16:31:13;98580.66;;;16.65;68.46